sensor_id;sensor_type;location;lat;lon;timestamp;P1;durP1;ratioP1;P2;durP2;ratioP2
8861;SDS011;4799;50.996;4.754;2022-12-18T00:00:39;83.20;;;52.03;;
8861;SDS011;4799;50.996;4.754;2022-12-18T00:03:09;88.47;;;52.93;;
8861;SDS011;4799;50.996;4.754;2022-12-18T00:05:35;88.43;;;53.90;;
8861;SDS011;4799;50.996;4.754;2022-12-18T00:08:01;84.00;;;52.50;;
8861;SDS011;4799;50.996;4.754;2022-12-18T00:10:28;91.57;;;54.53;;
8861;SDS011;4799;50.996;4.754;2022-12-18T00:12:54;86.70;;;53.63;;
8861;SDS011;4799;50.996;4.754;2022-12-18T00:15:20;92.43;;;55.77;;
8861;SDS011;4799;50.996;4.754;2022-12-18T00:17:45;86.20;;;52.57;;
8861;SDS011;4799;50.996;4.754;2022-12-18T00:20:11;86.30;;;52.87;;
8861;SDS011;4799;50.996;4.754;2022-12-18T00:22:37;86.43;;;53.63;;
8861;SDS011;4799;50.996;4.754;2022-12-18T00:25:02;77.63;;;48.87;;
8861;SDS011;4799;50.996;4.754;2022-12-18T00:27:28;84.07;;;51.63;;
8861;SDS011;4799;50.996;4.754;2022-12-18T00:29:54;86.50;;;53.97;;
8861;SDS011;4799;50.996;4.754;2022-12-18T00:32:20;93.03;;;57.20;;
8861;SDS011;4799;50.996;4.754;2022-12-18T00:34:45;99.00;;;59.50;;
8861;SDS011;4799;50.996;4.754;2022-12-18T00:37:11;77.23;;;50.67;;
8861;SDS011;4799;50.996;4.754;2022-12-18T00:39:37;78.60;;;51.67;;
8861;SDS011;4799;50.996;4.754;2022-12-18T00:42:03;78.33;;;49.10;;
8861;SDS011;4799;50.996;4.754;2022-12-18T00:44:47;77.53;;;49.23;;
8861;SDS011;4799;50.996;4.754;2022-12-18T00:47:12;74.90;;;47.77;;
8861;SDS011;4799;50.996;4.754;2022-12-18T00:49:38;76.23;;;49.40;;
8861;SDS011;4799;50.996;4.754;2022-12-18T00:52:04;81.90;;;50.50;;
8861;SDS011;4799;50.996;4.754;2022-12-18T00:54:30;72.70;;;47.40;;
8861;SDS011;4799;50.996;4.754;2022-12-18T00:56:56;74.33;;;48.00;;
8861;SDS011;4799;50.996;4.754;2022-12-18T00:59:21;72.57;;;47.67;;
8861;SDS011;4799;50.996;4.754;2022-12-18T01:01:47;79.57;;;49.57;;
8861;SDS011;4799;50.996;4.754;2022-12-18T01:04:13;83.30;;;51.10;;
8861;SDS011;4799;50.996;4.754;2022-12-18T01:06:39;75.57;;;47.97;;
8861;SDS011;4799;50.996;4.754;2022-12-18T01:09:05;84.23;;;53.00;;
8861;SDS011;4799;50.996;4.754;2022-12-18T01:11:31;73.47;;;46.73;;
8861;SDS011;4799;50.996;4.754;2022-12-18T01:14:00;78.50;;;50.03;;
8861;SDS011;4799;50.996;4.754;2022-12-18T01:16:25;74.93;;;47.63;;
8861;SDS011;4799;50.996;4.754;2022-12-18T01:18:52;70.17;;;45.93;;
8861;SDS011;4799;50.996;4.754;2022-12-18T01:21:19;75.20;;;46.13;;
8861;SDS011;4799;50.996;4.754;2022-12-18T01:23:46;70.43;;;45.17;;
8861;SDS011;4799;50.996;4.754;2022-12-18T01:26:13;65.03;;;44.33;;
8861;SDS011;4799;50.996;4.754;2022-12-18T01:28:40;78.97;;;49.80;;
8861;SDS011;4799;50.996;4.754;2022-12-18T01:31:10;77.10;;;47.80;;
8861;SDS011;4799;50.996;4.754;2022-12-18T01:33:37;69.20;;;45.13;;
8861;SDS011;4799;50.996;4.754;2022-12-18T01:36:03;67.50;;;46.17;;
8861;SDS011;4799;50.996;4.754;2022-12-18T01:38:29;67.30;;;43.43;;
8861;SDS011;4799;50.996;4.754;2022-12-18T01:40:58;70.33;;;46.00;;
8861;SDS011;4799;50.996;4.754;2022-12-18T01:43:41;63.67;;;43.33;;
8861;SDS011;4799;50.996;4.754;2022-12-18T01:46:08;72.47;;;44.43;;
8861;SDS011;4799;50.996;4.754;2022-12-18T01:48:34;64.47;;;43.30;;
8861;SDS011;4799;50.996;4.754;2022-12-18T01:51:00;66.17;;;43.03;;
8861;SDS011;4799;50.996;4.754;2022-12-18T01:53:26;62.70;;;41.30;;
8861;SDS011;4799;50.996;4.754;2022-12-18T01:55:53;61.20;;;41.67;;
8861;SDS011;4799;50.996;4.754;2022-12-18T01:58:23;60.63;;;41.27;;
8861;SDS011;4799;50.996;4.754;2022-12-18T02:00:55;55.57;;;38.20;;
8861;SDS011;4799;50.996;4.754;2022-12-18T02:03:21;56.87;;;38.37;;
8861;SDS011;4799;50.996;4.754;2022-12-18T02:05:59;65.97;;;43.30;;
8861;SDS011;4799;50.996;4.754;2022-12-18T02:08:39;59.00;;;40.50;;
8861;SDS011;4799;50.996;4.754;2022-12-18T02:11:19;64.47;;;42.57;;
8861;SDS011;4799;50.996;4.754;2022-12-18T02:27:53;56.70;;;40.37;;
8861;SDS011;4799;50.996;4.754;2022-12-18T02:30:21;58.00;;;38.90;;
8861;SDS011;4799;50.996;4.754;2022-12-18T02:32:51;59.13;;;40.27;;
8861;SDS011;4799;50.996;4.754;2022-12-18T02:35:21;57.50;;;40.87;;
8861;SDS011;4799;50.996;4.754;2022-12-18T02:37:52;65.47;;;42.37;;
8861;SDS011;4799;50.996;4.754;2022-12-18T02:40:19;64.93;;;42.40;;
8861;SDS011;4799;50.996;4.754;2022-12-18T02:42:47;60.50;;;40.03;;
8861;SDS011;4799;50.996;4.754;2022-12-18T02:45:12;58.23;;;39.77;;
8861;SDS011;4799;50.996;4.754;2022-12-18T02:47:39;60.00;;;39.37;;
8861;SDS011;4799;50.996;4.754;2022-12-18T02:50:16;54.90;;;38.37;;
8861;SDS011;4799;50.996;4.754;2022-12-18T03:00:43;55.60;;;39.03;;
8861;SDS011;4799;50.996;4.754;2022-12-18T03:03:25;58.80;;;40.80;;
8861;SDS011;4799;50.996;4.754;2022-12-18T03:06:46;57.50;;;39.20;;
8861;SDS011;4799;50.996;4.754;2022-12-18T03:09:07;58.40;;;40.50;;
8861;SDS011;4799;50.996;4.754;2022-12-18T03:11:43;56.73;;;40.30;;
8861;SDS011;4799;50.996;4.754;2022-12-18T03:14:33;56.33;;;39.50;;
8861;SDS011;4799;50.996;4.754;2022-12-18T03:17:03;60.63;;;41.47;;
8861;SDS011;4799;50.996;4.754;2022-12-18T03:19:34;57.63;;;39.77;;
8861;SDS011;4799;50.996;4.754;2022-12-18T03:22:01;53.83;;;38.70;;
8861;SDS011;4799;50.996;4.754;2022-12-18T03:24:29;52.77;;;38.60;;
8861;SDS011;4799;50.996;4.754;2022-12-18T03:27:02;55.47;;;38.90;;
8861;SDS011;4799;50.996;4.754;2022-12-18T03:29:56;53.57;;;38.33;;
8861;SDS011;4799;50.996;4.754;2022-12-18T03:32:52;55.30;;;38.27;;
8861;SDS011;4799;50.996;4.754;2022-12-18T03:35:25;56.63;;;38.67;;
8861;SDS011;4799;50.996;4.754;2022-12-18T03:37:54;52.30;;;39.00;;
8861;SDS011;4799;50.996;4.754;2022-12-18T03:40:21;58.87;;;40.80;;
8861;SDS011;4799;50.996;4.754;2022-12-18T03:43:01;59.97;;;41.57;;
8861;SDS011;4799;50.996;4.754;2022-12-18T03:45:44;55.63;;;40.00;;
8861;SDS011;4799;50.996;4.754;2022-12-18T03:48:30;57.57;;;39.43;;
8861;SDS011;4799;50.996;4.754;2022-12-18T03:51:05;52.63;;;36.90;;
8861;SDS011;4799;50.996;4.754;2022-12-18T03:53:57;58.10;;;39.47;;
8861;SDS011;4799;50.996;4.754;2022-12-18T03:56:23;51.87;;;36.30;;
8861;SDS011;4799;50.996;4.754;2022-12-18T03:58:53;48.60;;;36.07;;
8861;SDS011;4799;50.996;4.754;2022-12-18T04:01:22;51.53;;;36.53;;
8861;SDS011;4799;50.996;4.754;2022-12-18T04:03:53;48.93;;;35.67;;
8861;SDS011;4799;50.996;4.754;2022-12-18T04:06:21;47.23;;;35.97;;
8861;SDS011;4799;50.996;4.754;2022-12-18T04:08:48;45.97;;;33.97;;
8861;SDS011;4799;50.996;4.754;2022-12-18T04:11:14;51.03;;;35.13;;
8861;SDS011;4799;50.996;4.754;2022-12-18T04:13:41;49.50;;;35.53;;
8861;SDS011;4799;50.996;4.754;2022-12-18T04:16:07;57.20;;;39.93;;
8861;SDS011;4799;50.996;4.754;2022-12-18T04:18:34;57.63;;;39.63;;
8861;SDS011;4799;50.996;4.754;2022-12-18T04:21:01;56.13;;;39.80;;
8861;SDS011;4799;50.996;4.754;2022-12-18T04:23:27;53.47;;;37.10;;
8861;SDS011;4799;50.996;4.754;2022-12-18T04:25:53;51.57;;;36.30;;
8861;SDS011;4799;50.996;4.754;2022-12-18T04:28:19;48.80;;;35.27;;
8861;SDS011;4799;50.996;4.754;2022-12-18T04:30:45;49.33;;;34.90;;
8861;SDS011;4799;50.996;4.754;2022-12-18T04:33:11;54.13;;;38.43;;
8861;SDS011;4799;50.996;4.754;2022-12-18T04:35:39;48.37;;;35.40;;
8861;SDS011;4799;50.996;4.754;2022-12-18T04:38:05;53.67;;;37.40;;
8861;SDS011;4799;50.996;4.754;2022-12-18T04:40:33;54.43;;;36.70;;
8861;SDS011;4799;50.996;4.754;2022-12-18T04:42:59;50.53;;;36.00;;
8861;SDS011;4799;50.996;4.754;2022-12-18T04:45:25;52.97;;;36.60;;
8861;SDS011;4799;50.996;4.754;2022-12-18T04:47:51;51.60;;;35.93;;
8861;SDS011;4799;50.996;4.754;2022-12-18T04:50:16;46.87;;;34.00;;
8861;SDS011;4799;50.996;4.754;2022-12-18T04:52:42;50.37;;;35.20;;
8861;SDS011;4799;50.996;4.754;2022-12-18T04:55:08;50.93;;;37.17;;
8861;SDS011;4799;50.996;4.754;2022-12-18T04:57:34;47.63;;;33.93;;
8861;SDS011;4799;50.996;4.754;2022-12-18T04:59:59;53.93;;;37.60;;
8861;SDS011;4799;50.996;4.754;2022-12-18T05:02:25;53.23;;;35.87;;
8861;SDS011;4799;50.996;4.754;2022-12-18T05:04:51;49.77;;;35.17;;
8861;SDS011;4799;50.996;4.754;2022-12-18T05:07:17;56.33;;;39.20;;
8861;SDS011;4799;50.996;4.754;2022-12-18T05:09:43;49.27;;;35.13;;
8861;SDS011;4799;50.996;4.754;2022-12-18T05:12:08;52.03;;;37.33;;
8861;SDS011;4799;50.996;4.754;2022-12-18T05:14:34;50.80;;;35.90;;
8861;SDS011;4799;50.996;4.754;2022-12-18T05:17:00;51.30;;;34.73;;
8861;SDS011;4799;50.996;4.754;2022-12-18T05:19:25;50.87;;;35.33;;
8861;SDS011;4799;50.996;4.754;2022-12-18T05:21:51;50.73;;;35.87;;
8861;SDS011;4799;50.996;4.754;2022-12-18T05:24:17;48.17;;;35.47;;
8861;SDS011;4799;50.996;4.754;2022-12-18T05:26:42;48.10;;;33.97;;
8861;SDS011;4799;50.996;4.754;2022-12-18T05:29:08;48.80;;;34.47;;
8861;SDS011;4799;50.996;4.754;2022-12-18T05:31:37;47.30;;;33.60;;
8861;SDS011;4799;50.996;4.754;2022-12-18T05:34:03;51.03;;;36.60;;
8861;SDS011;4799;50.996;4.754;2022-12-18T05:36:29;52.10;;;35.83;;
8861;SDS011;4799;50.996;4.754;2022-12-18T05:38:55;44.60;;;32.80;;
8861;SDS011;4799;50.996;4.754;2022-12-18T05:41:21;45.60;;;32.60;;
8861;SDS011;4799;50.996;4.754;2022-12-18T05:43:47;42.17;;;31.67;;
8861;SDS011;4799;50.996;4.754;2022-12-18T05:46:13;49.37;;;34.50;;
8861;SDS011;4799;50.996;4.754;2022-12-18T05:48:41;48.43;;;34.20;;
8861;SDS011;4799;50.996;4.754;2022-12-18T05:51:11;45.17;;;32.37;;
8861;SDS011;4799;50.996;4.754;2022-12-18T05:53:39;42.27;;;31.47;;
8861;SDS011;4799;50.996;4.754;2022-12-18T05:56:07;44.53;;;32.23;;
8861;SDS011;4799;50.996;4.754;2022-12-18T05:58:34;46.13;;;32.60;;
8861;SDS011;4799;50.996;4.754;2022-12-18T06:01:14;45.97;;;34.80;;
8861;SDS011;4799;50.996;4.754;2022-12-18T06:03:42;45.30;;;32.97;;
8861;SDS011;4799;50.996;4.754;2022-12-18T06:06:27;47.40;;;34.23;;
8861;SDS011;4799;50.996;4.754;2022-12-18T06:08:54;47.87;;;33.93;;
8861;SDS011;4799;50.996;4.754;2022-12-18T06:11:22;49.70;;;35.57;;
8861;SDS011;4799;50.996;4.754;2022-12-18T06:13:50;46.20;;;33.63;;
8861;SDS011;4799;50.996;4.754;2022-12-18T06:16:17;42.43;;;33.70;;
8861;SDS011;4799;50.996;4.754;2022-12-18T06:18:43;41.47;;;32.10;;
8861;SDS011;4799;50.996;4.754;2022-12-18T06:21:09;40.33;;;30.43;;
8861;SDS011;4799;50.996;4.754;2022-12-18T06:23:35;42.43;;;30.77;;
8861;SDS011;4799;50.996;4.754;2022-12-18T06:26:07;39.87;;;30.50;;
8861;SDS011;4799;50.996;4.754;2022-12-18T06:28:34;43.50;;;32.07;;
8861;SDS011;4799;50.996;4.754;2022-12-18T06:31:00;40.20;;;30.77;;
8861;SDS011;4799;50.996;4.754;2022-12-18T06:33:28;40.40;;;30.40;;
8861;SDS011;4799;50.996;4.754;2022-12-18T06:35:59;40.93;;;30.27;;
8861;SDS011;4799;50.996;4.754;2022-12-18T06:38:26;42.97;;;31.03;;
8861;SDS011;4799;50.996;4.754;2022-12-18T06:40:52;43.00;;;32.43;;
8861;SDS011;4799;50.996;4.754;2022-12-18T06:43:17;40.13;;;30.13;;
8861;SDS011;4799;50.996;4.754;2022-12-18T06:45:43;37.77;;;29.67;;
8861;SDS011;4799;50.996;4.754;2022-12-18T06:48:09;38.27;;;29.60;;
8861;SDS011;4799;50.996;4.754;2022-12-18T06:50:34;36.87;;;28.47;;
8861;SDS011;4799;50.996;4.754;2022-12-18T06:53:00;37.50;;;29.40;;
8861;SDS011;4799;50.996;4.754;2022-12-18T06:55:26;36.77;;;27.80;;
8861;SDS011;4799;50.996;4.754;2022-12-18T06:57:52;37.60;;;28.53;;
8861;SDS011;4799;50.996;4.754;2022-12-18T07:00:17;36.67;;;28.00;;
8861;SDS011;4799;50.996;4.754;2022-12-18T07:02:43;36.47;;;28.07;;
8861;SDS011;4799;50.996;4.754;2022-12-18T07:05:09;36.33;;;28.43;;
8861;SDS011;4799;50.996;4.754;2022-12-18T07:07:35;36.00;;;27.13;;
8861;SDS011;4799;50.996;4.754;2022-12-18T07:10:00;36.23;;;27.13;;
8861;SDS011;4799;50.996;4.754;2022-12-18T07:12:26;31.67;;;25.00;;
8861;SDS011;4799;50.996;4.754;2022-12-18T07:14:52;34.37;;;25.40;;
8861;SDS011;4799;50.996;4.754;2022-12-18T07:17:18;38.20;;;29.30;;
8861;SDS011;4799;50.996;4.754;2022-12-18T07:19:44;34.93;;;26.83;;
8861;SDS011;4799;50.996;4.754;2022-12-18T07:22:10;34.93;;;26.80;;
8861;SDS011;4799;50.996;4.754;2022-12-18T07:24:35;36.63;;;28.57;;
8861;SDS011;4799;50.996;4.754;2022-12-18T07:27:01;35.63;;;27.77;;
8861;SDS011;4799;50.996;4.754;2022-12-18T07:29:27;38.43;;;28.73;;
8861;SDS011;4799;50.996;4.754;2022-12-18T07:31:53;31.57;;;25.57;;
8861;SDS011;4799;50.996;4.754;2022-12-18T07:34:19;33.53;;;25.87;;
8861;SDS011;4799;50.996;4.754;2022-12-18T07:36:45;33.70;;;26.23;;
8861;SDS011;4799;50.996;4.754;2022-12-18T07:39:11;32.47;;;25.60;;
8861;SDS011;4799;50.996;4.754;2022-12-18T07:41:36;34.20;;;26.90;;
8861;SDS011;4799;50.996;4.754;2022-12-18T07:44:02;32.27;;;25.57;;
8861;SDS011;4799;50.996;4.754;2022-12-18T07:46:28;35.33;;;27.33;;
8861;SDS011;4799;50.996;4.754;2022-12-18T07:48:54;32.57;;;26.13;;
8861;SDS011;4799;50.996;4.754;2022-12-18T07:51:20;33.73;;;26.00;;
8861;SDS011;4799;50.996;4.754;2022-12-18T07:53:46;35.07;;;26.97;;
8861;SDS011;4799;50.996;4.754;2022-12-18T07:56:12;31.27;;;25.63;;
8861;SDS011;4799;50.996;4.754;2022-12-18T07:58:38;32.07;;;25.67;;
8861;SDS011;4799;50.996;4.754;2022-12-18T08:01:04;33.27;;;26.20;;
8861;SDS011;4799;50.996;4.754;2022-12-18T08:03:35;33.00;;;27.20;;
8861;SDS011;4799;50.996;4.754;2022-12-18T08:06:01;35.63;;;27.60;;
8861;SDS011;4799;50.996;4.754;2022-12-18T08:08:28;35.97;;;26.83;;
8861;SDS011;4799;50.996;4.754;2022-12-18T08:10:55;34.10;;;26.07;;
8861;SDS011;4799;50.996;4.754;2022-12-18T08:13:23;30.73;;;25.10;;
8861;SDS011;4799;50.996;4.754;2022-12-18T08:15:59;30.63;;;24.57;;
8861;SDS011;4799;50.996;4.754;2022-12-18T08:18:28;29.07;;;23.70;;
8861;SDS011;4799;50.996;4.754;2022-12-18T08:20:54;29.27;;;23.70;;
8861;SDS011;4799;50.996;4.754;2022-12-18T08:23:21;33.20;;;25.97;;
8861;SDS011;4799;50.996;4.754;2022-12-18T08:25:47;30.63;;;25.27;;
8861;SDS011;4799;50.996;4.754;2022-12-18T08:28:13;32.77;;;24.93;;
8861;SDS011;4799;50.996;4.754;2022-12-18T08:30:42;32.63;;;25.70;;
8861;SDS011;4799;50.996;4.754;2022-12-18T08:33:07;32.27;;;25.17;;
8861;SDS011;4799;50.996;4.754;2022-12-18T08:35:36;33.83;;;26.63;;
8861;SDS011;4799;50.996;4.754;2022-12-18T08:38:02;33.83;;;25.43;;
8861;SDS011;4799;50.996;4.754;2022-12-18T08:40:28;32.03;;;26.03;;
8861;SDS011;4799;50.996;4.754;2022-12-18T08:42:54;36.63;;;28.80;;
8861;SDS011;4799;50.996;4.754;2022-12-18T08:45:38;33.80;;;27.10;;
8861;SDS011;4799;50.996;4.754;2022-12-18T08:48:04;32.67;;;26.23;;
8861;SDS011;4799;50.996;4.754;2022-12-18T08:50:30;31.57;;;24.60;;
8861;SDS011;4799;50.996;4.754;2022-12-18T08:52:56;34.63;;;25.70;;
8861;SDS011;4799;50.996;4.754;2022-12-18T08:55:21;32.47;;;25.13;;
8861;SDS011;4799;50.996;4.754;2022-12-18T08:57:48;33.70;;;25.63;;
8861;SDS011;4799;50.996;4.754;2022-12-18T09:00:14;31.97;;;25.57;;
8861;SDS011;4799;50.996;4.754;2022-12-18T09:02:40;32.23;;;25.33;;
8861;SDS011;4799;50.996;4.754;2022-12-18T09:05:06;34.13;;;26.37;;
8861;SDS011;4799;50.996;4.754;2022-12-18T09:07:32;33.80;;;27.27;;
8861;SDS011;4799;50.996;4.754;2022-12-18T09:09:58;32.07;;;26.70;;
8861;SDS011;4799;50.996;4.754;2022-12-18T09:12:23;33.17;;;27.40;;
8861;SDS011;4799;50.996;4.754;2022-12-18T09:14:49;30.70;;;25.97;;
8861;SDS011;4799;50.996;4.754;2022-12-18T09:17:15;31.67;;;26.60;;
8861;SDS011;4799;50.996;4.754;2022-12-18T09:19:41;30.27;;;26.40;;
8861;SDS011;4799;50.996;4.754;2022-12-18T09:22:07;33.20;;;26.30;;
8861;SDS011;4799;50.996;4.754;2022-12-18T09:24:32;31.33;;;25.93;;
8861;SDS011;4799;50.996;4.754;2022-12-18T09:26:58;30.57;;;26.53;;
8861;SDS011;4799;50.996;4.754;2022-12-18T09:29:24;32.90;;;25.80;;
8861;SDS011;4799;50.996;4.754;2022-12-18T09:31:49;32.00;;;25.37;;
8861;SDS011;4799;50.996;4.754;2022-12-18T09:34:15;31.70;;;25.30;;
8861;SDS011;4799;50.996;4.754;2022-12-18T09:36:42;33.23;;;27.13;;
8861;SDS011;4799;50.996;4.754;2022-12-18T09:39:08;29.60;;;25.10;;
8861;SDS011;4799;50.996;4.754;2022-12-18T09:49:49;29.73;;;25.00;;
8861;SDS011;4799;50.996;4.754;2022-12-18T09:57:56;31.27;;;25.83;;
8861;SDS011;4799;50.996;4.754;2022-12-18T10:00:27;28.93;;;25.37;;
8861;SDS011;4799;50.996;4.754;2022-12-18T10:02:56;31.27;;;25.60;;
8861;SDS011;4799;50.996;4.754;2022-12-18T10:05:33;30.93;;;26.20;;
8861;SDS011;4799;50.996;4.754;2022-12-18T10:11:29;26.20;;;22.40;;
8861;SDS011;4799;50.996;4.754;2022-12-18T10:14:16;24.73;;;21.83;;
8861;SDS011;4799;50.996;4.754;2022-12-18T10:17:05;28.60;;;23.73;;
8861;SDS011;4799;50.996;4.754;2022-12-18T10:20:01;26.20;;;22.57;;
8861;SDS011;4799;50.996;4.754;2022-12-18T10:22:57;29.07;;;23.60;;
8861;SDS011;4799;50.996;4.754;2022-12-18T10:25:27;24.70;;;21.83;;
8861;SDS011;4799;50.996;4.754;2022-12-18T10:28:20;25.90;;;22.97;;
8861;SDS011;4799;50.996;4.754;2022-12-18T10:30:48;26.80;;;22.83;;
8861;SDS011;4799;50.996;4.754;2022-12-18T10:33:15;26.63;;;22.80;;
8861;SDS011;4799;50.996;4.754;2022-12-18T10:35:43;27.40;;;22.00;;
8861;SDS011;4799;50.996;4.754;2022-12-18T10:43:29;24.00;;;20.70;;
8861;SDS011;4799;50.996;4.754;2022-12-18T10:51:19;24.83;;;22.03;;
8861;SDS011;4799;50.996;4.754;2022-12-18T10:56:24;23.73;;;21.23;;
8861;SDS011;4799;50.996;4.754;2022-12-18T10:58:57;24.43;;;21.83;;
8861;SDS011;4799;50.996;4.754;2022-12-18T11:01:31;22.77;;;19.67;;
8861;SDS011;4799;50.996;4.754;2022-12-18T11:04:18;22.40;;;19.97;;
8861;SDS011;4799;50.996;4.754;2022-12-18T11:06:56;24.13;;;20.87;;
8861;SDS011;4799;50.996;4.754;2022-12-18T11:09:27;22.10;;;19.70;;
8861;SDS011;4799;50.996;4.754;2022-12-18T11:11:56;22.27;;;19.60;;
8861;SDS011;4799;50.996;4.754;2022-12-18T11:14:25;22.17;;;19.77;;
8861;SDS011;4799;50.996;4.754;2022-12-18T11:16:55;21.47;;;19.17;;
8861;SDS011;4799;50.996;4.754;2022-12-18T11:21:57;26.33;;;21.70;;
8861;SDS011;4799;50.996;4.754;2022-12-18T11:24:34;23.30;;;20.83;;
8861;SDS011;4799;50.996;4.754;2022-12-18T11:27:05;24.00;;;21.33;;
8861;SDS011;4799;50.996;4.754;2022-12-18T11:29:40;18.73;;;16.73;;
8861;SDS011;4799;50.996;4.754;2022-12-18T11:32:13;23.37;;;20.63;;
8861;SDS011;4799;50.996;4.754;2022-12-18T11:35:03;23.40;;;20.37;;
8861;SDS011;4799;50.996;4.754;2022-12-18T11:37:38;23.03;;;20.20;;
8861;SDS011;4799;50.996;4.754;2022-12-18T11:40:09;22.30;;;19.97;;
8861;SDS011;4799;50.996;4.754;2022-12-18T11:42:48;22.43;;;20.03;;
8861;SDS011;4799;50.996;4.754;2022-12-18T11:50:51;22.33;;;20.03;;
8861;SDS011;4799;50.996;4.754;2022-12-18T11:53:19;22.40;;;20.00;;
8861;SDS011;4799;50.996;4.754;2022-12-18T11:56:05;23.07;;;19.80;;
8861;SDS011;4799;50.996;4.754;2022-12-18T11:58:52;24.43;;;21.77;;
8861;SDS011;4799;50.996;4.754;2022-12-18T12:12:38;23.50;;;20.90;;
8861;SDS011;4799;50.996;4.754;2022-12-18T12:24:01;24.23;;;20.80;;
8861;SDS011;4799;50.996;4.754;2022-12-18T12:26:54;23.50;;;21.10;;
8861;SDS011;4799;50.996;4.754;2022-12-18T12:29:33;21.43;;;19.33;;
8861;SDS011;4799;50.996;4.754;2022-12-18T12:37:49;20.93;;;18.87;;
8861;SDS011;4799;50.996;4.754;2022-12-18T12:40:26;23.10;;;20.67;;
8861;SDS011;4799;50.996;4.754;2022-12-18T12:42:59;21.60;;;19.40;;
8861;SDS011;4799;50.996;4.754;2022-12-18T12:45:41;20.03;;;17.93;;
8861;SDS011;4799;50.996;4.754;2022-12-18T12:51:00;21.13;;;18.80;;
8861;SDS011;4799;50.996;4.754;2022-12-18T12:53:32;21.13;;;18.93;;
8861;SDS011;4799;50.996;4.754;2022-12-18T12:56:01;21.50;;;19.30;;
8861;SDS011;4799;50.996;4.754;2022-12-18T12:58:34;22.17;;;19.87;;
8861;SDS011;4799;50.996;4.754;2022-12-18T13:01:23;20.93;;;18.73;;
8861;SDS011;4799;50.996;4.754;2022-12-18T13:04:01;22.57;;;20.27;;
8861;SDS011;4799;50.996;4.754;2022-12-18T13:09:36;20.73;;;18.57;;
8861;SDS011;4799;50.996;4.754;2022-12-18T13:18:04;23.17;;;20.77;;
8861;SDS011;4799;50.996;4.754;2022-12-18T13:25:57;22.83;;;20.53;;
8861;SDS011;4799;50.996;4.754;2022-12-18T13:30:59;23.70;;;21.10;;
8861;SDS011;4799;50.996;4.754;2022-12-18T13:38:42;23.77;;;21.27;;
8861;SDS011;4799;50.996;4.754;2022-12-18T13:43:49;25.17;;;22.10;;
8861;SDS011;4799;50.996;4.754;2022-12-18T13:46:21;22.83;;;20.43;;
8861;SDS011;4799;50.996;4.754;2022-12-18T13:49:03;24.37;;;21.87;;
8861;SDS011;4799;50.996;4.754;2022-12-18T13:51:51;23.83;;;21.07;;
8861;SDS011;4799;50.996;4.754;2022-12-18T13:56:46;23.00;;;20.60;;
8861;SDS011;4799;50.996;4.754;2022-12-18T13:59:20;23.17;;;20.37;;
8861;SDS011;4799;50.996;4.754;2022-12-18T14:01:55;24.60;;;21.80;;
8861;SDS011;4799;50.996;4.754;2022-12-18T14:04:30;24.27;;;21.47;;
8861;SDS011;4799;50.996;4.754;2022-12-18T14:07:07;23.93;;;21.43;;
8861;SDS011;4799;50.996;4.754;2022-12-18T14:09:43;22.97;;;20.47;;
8861;SDS011;4799;50.996;4.754;2022-12-18T14:12:33;24.07;;;21.57;;
8861;SDS011;4799;50.996;4.754;2022-12-18T14:17:55;23.20;;;20.77;;
8861;SDS011;4799;50.996;4.754;2022-12-18T14:20:22;22.37;;;19.97;;
8861;SDS011;4799;50.996;4.754;2022-12-18T14:22:50;22.83;;;20.53;;
8861;SDS011;4799;50.996;4.754;2022-12-18T14:25:18;23.57;;;21.10;;
8861;SDS011;4799;50.996;4.754;2022-12-18T14:27:47;22.07;;;19.77;;
8861;SDS011;4799;50.996;4.754;2022-12-18T14:30:23;24.53;;;21.83;;
8861;SDS011;4799;50.996;4.754;2022-12-18T14:33:00;26.13;;;23.43;;
8861;SDS011;4799;50.996;4.754;2022-12-18T14:35:26;25.60;;;23.00;;
8861;SDS011;4799;50.996;4.754;2022-12-18T14:37:52;24.57;;;21.93;;
8861;SDS011;4799;50.996;4.754;2022-12-18T14:40:18;25.60;;;22.90;;
8861;SDS011;4799;50.996;4.754;2022-12-18T14:42:44;24.03;;;21.53;;
8861;SDS011;4799;50.996;4.754;2022-12-18T14:48:05;24.13;;;21.53;;
8861;SDS011;4799;50.996;4.754;2022-12-18T14:50:45;23.47;;;21.00;;
8861;SDS011;4799;50.996;4.754;2022-12-18T14:53:35;25.43;;;22.73;;
8861;SDS011;4799;50.996;4.754;2022-12-18T14:56:25;23.33;;;20.93;;
8861;SDS011;4799;50.996;4.754;2022-12-18T14:59:00;23.33;;;20.87;;
8861;SDS011;4799;50.996;4.754;2022-12-18T15:01:36;25.03;;;21.63;;
8861;SDS011;4799;50.996;4.754;2022-12-18T15:04:04;23.53;;;21.13;;
8861;SDS011;4799;50.996;4.754;2022-12-18T15:06:47;24.67;;;21.40;;
8861;SDS011;4799;50.996;4.754;2022-12-18T15:09:23;23.70;;;20.80;;
8861;SDS011;4799;50.996;4.754;2022-12-18T15:11:55;24.60;;;22.03;;
8861;SDS011;4799;50.996;4.754;2022-12-18T15:14:38;24.13;;;21.50;;
8861;SDS011;4799;50.996;4.754;2022-12-18T15:17:21;24.00;;;21.33;;
8861;SDS011;4799;50.996;4.754;2022-12-18T15:19:50;25.57;;;22.03;;
8861;SDS011;4799;50.996;4.754;2022-12-18T15:22:19;23.43;;;20.93;;
8861;SDS011;4799;50.996;4.754;2022-12-18T15:24:48;23.97;;;21.37;;
8861;SDS011;4799;50.996;4.754;2022-12-18T15:27:34;24.27;;;21.67;;
8861;SDS011;4799;50.996;4.754;2022-12-18T15:32:35;26.83;;;22.57;;
8861;SDS011;4799;50.996;4.754;2022-12-18T15:35:23;27.30;;;22.90;;
8861;SDS011;4799;50.996;4.754;2022-12-18T15:37:50;26.63;;;22.87;;
8861;SDS011;4799;50.996;4.754;2022-12-18T15:40:17;28.10;;;22.90;;
8861;SDS011;4799;50.996;4.754;2022-12-18T15:42:47;23.73;;;21.17;;
8861;SDS011;4799;50.996;4.754;2022-12-18T15:45:34;27.67;;;23.00;;
8861;SDS011;4799;50.996;4.754;2022-12-18T15:48:00;25.03;;;22.33;;
8861;SDS011;4799;50.996;4.754;2022-12-18T15:50:26;25.83;;;23.03;;
8861;SDS011;4799;50.996;4.754;2022-12-18T15:52:52;25.83;;;22.73;;
8861;SDS011;4799;50.996;4.754;2022-12-18T15:55:21;27.47;;;23.43;;
8861;SDS011;4799;50.996;4.754;2022-12-18T15:58:07;25.77;;;22.67;;
8861;SDS011;4799;50.996;4.754;2022-12-18T16:00:34;26.07;;;22.23;;
8861;SDS011;4799;50.996;4.754;2022-12-18T16:03:03;25.33;;;22.57;;
8861;SDS011;4799;50.996;4.754;2022-12-18T16:05:30;25.37;;;21.63;;
8861;SDS011;4799;50.996;4.754;2022-12-18T16:07:56;26.23;;;22.73;;
8861;SDS011;4799;50.996;4.754;2022-12-18T16:10:24;30.17;;;24.30;;
8861;SDS011;4799;50.996;4.754;2022-12-18T16:12:51;25.50;;;22.73;;
8861;SDS011;4799;50.996;4.754;2022-12-18T16:15:17;27.93;;;23.67;;
8861;SDS011;4799;50.996;4.754;2022-12-18T16:17:43;26.23;;;22.43;;
8861;SDS011;4799;50.996;4.754;2022-12-18T16:20:16;27.33;;;23.40;;
8861;SDS011;4799;50.996;4.754;2022-12-18T16:22:44;24.87;;;21.67;;
8861;SDS011;4799;50.996;4.754;2022-12-18T16:25:29;26.63;;;23.07;;
8861;SDS011;4799;50.996;4.754;2022-12-18T16:27:56;25.37;;;22.13;;
8861;SDS011;4799;50.996;4.754;2022-12-18T16:30:23;26.77;;;23.63;;
8861;SDS011;4799;50.996;4.754;2022-12-18T16:32:52;26.37;;;23.57;;
8861;SDS011;4799;50.996;4.754;2022-12-18T16:35:19;26.73;;;22.93;;
8861;SDS011;4799;50.996;4.754;2022-12-18T16:37:45;25.77;;;23.03;;
8861;SDS011;4799;50.996;4.754;2022-12-18T16:40:12;26.37;;;23.30;;
8861;SDS011;4799;50.996;4.754;2022-12-18T16:42:41;25.70;;;21.90;;
8861;SDS011;4799;50.996;4.754;2022-12-18T16:45:08;24.53;;;21.80;;
8861;SDS011;4799;50.996;4.754;2022-12-18T16:47:37;24.07;;;21.27;;
8861;SDS011;4799;50.996;4.754;2022-12-18T16:50:03;23.77;;;20.73;;
8861;SDS011;4799;50.996;4.754;2022-12-18T16:52:30;27.23;;;22.93;;
8861;SDS011;4799;50.996;4.754;2022-12-18T16:54:56;28.23;;;23.07;;
8861;SDS011;4799;50.996;4.754;2022-12-18T16:57:22;25.00;;;22.30;;
8861;SDS011;4799;50.996;4.754;2022-12-18T16:59:48;24.80;;;21.43;;
8861;SDS011;4799;50.996;4.754;2022-12-18T17:02:15;23.97;;;21.37;;
8861;SDS011;4799;50.996;4.754;2022-12-18T17:04:43;26.33;;;22.33;;
8861;SDS011;4799;50.996;4.754;2022-12-18T17:07:10;24.23;;;21.23;;
8861;SDS011;4799;50.996;4.754;2022-12-18T17:09:36;24.87;;;22.13;;